Time;durP1;ratioP1;P1;durP2;ratioP2;P2;SDS_P1;SDS_P2;PMS_P1;PMS_P2;Temp;Humidity;BMP_temperature;BMP_pressure;BME280_temperature;BME280_humidity;BME280_pressure;Samples;Min_cycle;Max_cycle;Signal;HPM_P1;HPM_P2
2023/10/04 00:00:15;;;;;;;;;;;;;;;13.80;76.45;99020.03;5089268;28;20404;-38
2023/10/04 00:02:43;;;;;;;9.50;3.42;;;;;;;13.70;77.12;98999.75;5073155;28;19916;-39
2023/10/04 00:05:10;;;;;;;10.25;3.17;;;;;;;13.68;77.47;98993.75;5067315;28;20056;-39
2023/10/04 00:07:36;;;;;;;6.13;2.72;;;;;;;13.67;77.57;98992.06;5067108;28;20062;-40
2023/10/04 00:10:04;;;;;;;12.70;3.72;;;;;;;13.73;77.54;98992.56;5068331;28;20511;-39
2023/10/04 00:12:30;;;;;;;7.55;3.30;;;;;;;13.74;77.76;98990.81;5067181;28;20044;-39
2023/10/04 00:14:59;;;;;;;8.88;3.08;;;;;;;13.76;77.67;98984.56;5074747;28;20067;-39
2023/10/04 00:17:24;;;;;;;12.88;4.35;;;;;;;13.76;77.84;98987.19;5077506;28;20435;-39
2023/10/04 00:19:50;;;;;;;6.32;3.45;;;;;;;13.77;77.96;98982.78;5050369;28;20040;-39
2023/10/04 00:22:18;;;;;;;8.52;3.50;;;;;;;13.74;77.88;98978.59;5068138;28;20511;-39
2023/10/04 00:24:44;;;;;;;5.05;2.83;;;;;;;13.78;78.30;98997.53;5067570;28;20050;-39
2023/10/04 00:27:10;;;;;;;7.55;3.53;;;;;;;13.78;78.14;98993.13;5067008;28;20044;-38
2023/10/04 00:29:37;;;;;;;7.53;3.45;;;;;;;13.75;78.18;98977.66;5077479;28;20051;-39
2023/10/04 00:32:04;;;;;;;9.00;3.03;;;;;;;13.72;78.19;98975.22;5074541;28;20037;-39
2023/10/04 00:34:30;;;;;;;13.48;3.83;;;;;;;13.78;78.23;98972.25;5089252;28;20431;-39
2023/10/04 00:36:56;;;;;;;7.93;3.70;;;;;;;13.75;78.40;98964.59;5103947;28;20039;-39
2023/10/04 00:39:22;;;;;;;4.45;2.38;;;;;;;13.73;78.57;98965.59;5082407;28;20466;-39
2023/10/04 00:41:50;;;;;;;9.40;4.00;;;;;;;13.73;78.84;98973.44;5067707;28;20036;-39
2023/10/04 00:44:16;;;;;;;8.73;3.30;;;;;;;13.70;79.06;98973.63;5066663;28;20139;-39
2023/10/04 00:46:45;;;;;;;9.45;3.50;;;;;;;13.33;79.10;98915.69;5066083;28;20139;-39
2023/10/04 00:49:15;;;;;;;5.05;2.92;;;;;;;13.64;79.18;98964.38;5082793;28;20044;-40
2023/10/04 00:51:40;;;;;;;8.75;3.63;;;;;;;13.61;79.40;98955.88;5069888;28;20037;-40
2023/10/04 00:54:07;;;;;;;9.75;4.30;;;;;;;13.58;79.59;98956.91;5066910;28;20055;-40
2023/10/04 00:56:38;;;;;;;10.30;3.53;;;;;;;13.55;79.96;98957.91;5083179;28;20055;-40
2023/10/04 00:59:04;;;;;;;9.88;3.47;;;;;;;13.54;80.12;98944.94;5068075;28;20048;-39
2023/10/04 01:01:31;;;;;;;7.55;3.65;;;;;;;13.54;80.27;98948.41;5080185;28;20044;-39
2023/10/04 01:04:00;;;;;;;9.40;3.83;;;;;;;13.52;80.27;98938.97;5066398;28;20134;-39
2023/10/04 01:06:26;;;;;;;7.60;3.28;;;;;;;13.51;80.43;98934.66;5078056;28;20143;-39
2023/10/04 01:08:53;;;;;;;5.53;3.10;;;;;;;13.48;80.59;98933.09;5079178;28;20127;-39
2023/10/04 01:11:22;;;;;;;8.23;3.42;;;;;;;13.47;80.66;98930.56;5089506;28;20040;-39
2023/10/04 01:13:53;;;;;;;10.20;4.50;;;;;;;13.40;80.81;98922.22;5077462;28;20044;-39
2023/10/04 01:16:23;;;;;;;14.48;4.03;;;;;;;13.43;80.66;98926.44;5071484;28;20427;-39
2023/10/04 01:18:49;;;;;;;5.05;2.58;;;;;;;13.18;81.05;98884.41;5069807;28;20071;-39
2023/10/04 01:21:17;;;;;;;7.60;3.10;;;;;;;13.36;81.00;98915.50;5090565;28;20071;-40
2023/10/04 01:23:45;;;;;;;7.35;3.58;;;;;;;13.39;81.30;98911.91;5090310;28;20508;-40
2023/10/04 01:26:25;;;;;;;9.63;4.10;;;;;;;13.36;81.39;98905.06;5073892;28;20117;-40
2023/10/04 01:28:52;;;;;;;8.32;3.85;;;;;;;13.36;81.33;98906.84;5071228;28;20095;-39
2023/10/04 01:31:19;;;;;;;7.40;3.28;;;;;;;13.30;81.61;98907.19;5071169;28;20075;-39
2023/10/04 01:33:45;;;;;;;9.05;3.28;;;;;;;13.10;81.67;98862.16;5086743;28;20531;-38
2023/10/04 01:36:12;;;;;;;12.43;4.25;;;;;;;13.29;81.89;98888.09;5070811;28;20115;-39
2023/10/04 01:38:37;;;;;;;9.60;4.10;;;;;;;13.27;81.84;98884.72;5104949;28;20127;-38
2023/10/04 01:41:04;;;;;;;7.85;3.65;;;;;;;13.07;82.14;98861.53;5084979;28;20093;-39
2023/10/04 01:43:30;;;;;;;15.07;3.92;;;;;;;13.24;82.42;98892.72;5079747;28;20058;-38
2023/10/04 01:45:58;;;;;;;8.77;3.90;;;;;;;13.23;82.32;98885.84;5069722;28;20041;-40
2023/10/04 01:48:26;;;;;;;8.65;3.97;;;;;;;13.20;82.08;98872.94;5070378;28;20131;-39
2023/10/04 01:50:53;;;;;;;8.07;3.63;;;;;;;13.03;82.20;98847.78;5098083;28;20050;-40
2023/10/04 01:53:22;;;;;;;13.27;5.47;;;;;;;13.17;82.51;98869.69;5089873;28;20036;-39
2023/10/04 01:55:48;;;;;;;8.50;4.28;;;;;;;13.20;82.57;98874.72;5095384;28;20037;-39
2023/10/04 01:58:15;;;;;;;10.98;4.05;;;;;;;13.19;82.71;98863.44;5089797;28;20059;-39
2023/10/04 02:00:42;;;;;;;11.05;3.88;;;;;;;13.17;83.10;98862.69;5089860;28;20039;-39
2023/10/04 02:03:09;;;;;;;7.65;3.83;;;;;;;13.17;82.93;98872.28;5086134;28;20071;-39
2023/10/04 02:05:41;;;;;;;10.63;4.40;;;;;;;13.18;82.94;98866.16;5070389;28;20076;-39
2023/10/04 02:08:15;;;;;;;9.45;4.43;;;;;;;13.20;82.95;98861.66;5084929;28;20152;-41
2023/10/04 02:10:41;;;;;;;9.68;4.00;;;;;;;13.20;82.68;98853.84;5073218;28;20130;-39
2023/10/04 02:13:11;;;;;;;11.02;4.20;;;;;;;13.20;82.85;98849.47;5088467;28;20880;-38
2023/10/04 02:15:47;;;;;;;7.72;4.15;;;;;;;13.20;82.78;98866.88;5089469;28;20062;-39
2023/10/04 02:18:15;;;;;;;9.98;4.13;;;;;;;13.01;82.74;98826.19;5087314;28;20499;-40
2023/10/04 02:20:47;;;;;;;9.45;4.00;;;;;;;13.18;82.65;98851.34;5066169;28;20127;-39
2023/10/04 02:23:13;;;;;;;7.90;4.22;;;;;;;13.18;82.76;98842.66;5090682;28;20055;-39
2023/10/04 02:25:39;;;;;;;7.57;4.32;;;;;;;13.17;82.73;98834.00;5066051;28;20032;-40
2023/10/04 02:28:11;;;;;;;12.50;4.32;;;;;;;13.18;82.82;98821.78;5068822;28;20496;-39
2023/10/04 02:30:38;;;;;;;7.45;3.92;;;;;;;13.17;82.63;98812.28;5074222;28;20036;-39
2023/10/04 02:33:13;;;;;;;8.02;4.07;;;;;;;13.16;82.89;98814.03;5087962;28;20043;-39
2023/10/04 02:35:44;;;;;;;12.07;4.38;;;;;;;13.15;82.73;98812.34;5067799;28;20135;-39
2023/10/04 02:38:26;;;;;;;8.73;3.72;;;;;;;13.14;83.02;98814.13;5067554;28;20785;-39
2023/10/04 02:40:53;;;;;;;8.35;4.03;;;;;;;13.16;82.81;98806.22;5081278;28;20043;-40
2023/10/04 02:43:20;;;;;;;6.35;3.50;;;;;;;13.15;82.74;98804.50;5088640;28;20130;-39
2023/10/04 02:45:47;;;;;;;10.02;4.20;;;;;;;12.96;82.56;98768.22;5096612;28;20531;-38
2023/10/04 02:48:13;;;;;;;8.23;4.43;;;;;;;12.97;82.56;98756.84;5086043;28;20083;-39
2023/10/04 02:50:40;;;;;;;10.65;4.38;;;;;;;13.14;82.46;98795.00;5071760;28;20033;-39
2023/10/04 02:53:17;;;;;;;8.57;4.32;;;;;;;13.15;82.80;98797.53;5089797;28;20750;-39
2023/10/04 02:55:44;;;;;;;11.40;4.72;;;;;;;13.15;82.66;98781.88;5099067;28;20051;-39
2023/10/04 02:58:12;;;;;;;8.15;3.70;;;;;;;13.14;82.74;98785.41;5068396;28;20033;-39
2023/10/04 03:00:49;;;;;;;8.40;3.78;;;;;;;13.16;82.56;98790.53;5087465;28;20566;-40
2023/10/04 03:03:22;;;;;;;7.30;3.30;;;;;;;13.15;82.46;98774.03;5089807;28;20036;-39
2023/10/04 03:05:51;;;;;;;7.95;3.80;;;;;;;13.14;82.59;98764.53;5103821;28;20055;-40
2023/10/04 03:08:18;;;;;;;9.63;4.25;;;;;;;13.14;82.33;98769.75;5107803;28;20043;-39
2023/10/04 03:10:45;;;;;;;10.00;4.20;;;;;;;13.13;82.32;98755.03;5088769;28;20399;-38
2023/10/04 03:13:12;;;;;;;7.07;3.97;;;;;;;13.13;82.35;98756.81;5091655;28;20142;-39
2023/10/04 03:15:39;;;;;;;9.02;4.03;;;;;;;13.13;82.19;98772.47;5075484;28;20039;-39
2023/10/04 03:18:13;;;;;;;9.07;4.10;;;;;;;12.93;82.40;98724.00;5067992;28;20040;-39
2023/10/04 03:20:49;;;;;;;10.48;4.05;;;;;;;13.11;82.31;98756.91;5080626;28;20043;-39
2023/10/04 03:23:18;;;;;;;10.48;4.35;;;;;;;12.73;82.32;98703.50;5084296;28;20122;-40
2023/10/04 03:25:43;;;;;;;10.57;4.40;;;;;;;13.09;82.45;98752.66;5089852;28;20040;-39
2023/10/04 03:28:10;;;;;;;8.90;4.00;;;;;;;13.08;82.55;98762.25;5086866;28;20043;-39
2023/10/04 03:30:36;;;;;;;11.77;4.53;;;;;;;13.00;82.45;98738.38;5071221;28;20043;-39
2023/10/04 03:33:02;;;;;;;11.05;3.95;;;;;;;13.09;82.47;98753.50;5097918;28;20530;-39
2023/10/04 03:35:29;;;;;;;13.95;4.38;;;;;;;12.95;82.46;98723.94;5089622;28;20458;-39
2023/10/04 03:38:01;;;;;;;12.02;4.32;;;;;;;13.12;82.29;98744.69;5093265;28;20127;-39
2023/10/04 03:40:35;;;;;;;8.35;3.95;;;;;;;13.12;82.15;98763.78;5085628;28;20423;-39
2023/10/04 03:43:07;;;;;;;10.65;4.30;;;;;;;13.14;81.74;98753.25;5071036;28;20070;-39
2023/10/04 03:45:35;;;;;;;7.32;3.45;;;;;;;13.14;81.82;98738.44;5087975;28;20050;-38
2023/10/04 03:48:02;;;;;;;8.30;4.03;;;;;;;13.14;81.71;98738.44;5099746;28;20105;-40
2023/10/04 03:50:28;;;;;;;13.57;3.85;;;;;;;13.02;81.36;98717.44;5068547;28;22036;-41
2023/10/04 03:52:57;;;;;;;11.55;4.65;;;;;;;13.13;81.67;98736.78;5090573;28;20047;-39
2023/10/04 03:55:25;;;;;;;8.23;3.70;;;;;;;13.15;81.70;98737.50;5106969;28;20134;-39
2023/10/04 03:57:52;;;;;;;9.50;4.20;;;;;;;13.16;81.20;98730.53;5080459;28;20036;-39
2023/10/04 04:00:19;;;;;;;6.90;3.35;;;;;;;13.14;81.26;98725.38;5080676;28;20036;-40
2023/10/04 04:02:46;;;;;;;11.27;4.45;;;;;;;12.98;81.08;98701.09;5082925;28;20142;-40
2023/10/04 04:05:14;;;;;;;12.80;4.65;;;;;;;12.95;81.39;98687.41;5096511;28;20052;-41
2023/10/04 04:07:41;;;;;;;9.18;4.85;;;;;;;13.17;81.27;98718.31;5066838;28;20040;-40
2023/10/04 04:10:14;;;;;;;12.30;4.60;;;;;;;13.17;81.16;98719.16;5103585;28;20035;-42
2023/10/04 04:12:42;;;;;;;11.18;4.60;;;;;;;13.03;80.91;98685.19;5107385;28;20046;-40
2023/10/04 04:15:09;;;;;;;9.45;4.10;;;;;;;13.21;80.92;98719.78;5068914;28;20036;-39
2023/10/04 04:17:37;;;;;;;11.75;3.97;;;;;;;13.22;80.73;98709.28;5066445;28;20051;-40
2023/10/04 04:20:14;;;;;;;8.10;3.80;;;;;;;13.09;80.24;98683.03;5033599;28;20039;-39
2023/10/04 04:22:46;;;;;;;12.93;4.25;;;;;;;13.26;79.94;98710.75;5089254;28;20043;-41
2023/10/04 04:25:15;;;;;;;10.50;4.30;;;;;;;13.11;79.74;98675.13;5063478;28;20040;-39
2023/10/04 04:27:45;;;;;;;9.45;4.55;;;;;;;13.32;79.58;98709.56;5092515;28;20059;-39
2023/10/04 04:30:19;;;;;;;10.55;4.65;;;;;;;13.35;79.41;98707.59;5068011;28;20519;-43
2023/10/04 04:32:47;;;;;;;10.38;4.53;;;;;;;13.38;78.98;98707.41;5083640;28;20045;-40
2023/10/04 04:35:23;;;;;;;11.50;4.35;;;;;;;13.23;78.77;98686.63;5073127;28;20043;-40
2023/10/04 04:37:54;;;;;;;11.98;4.32;;;;;;;13.42;78.20;98702.84;5054055;28;20135;-40
2023/10/04 04:40:29;;;;;;;8.43;4.60;;;;;;;13.46;78.07;98706.94;5065564;28;20392;-40
2023/10/04 04:43:17;;;;;;;9.90;4.28;;;;;;;13.32;77.78;98670.41;5070132;28;20036;-39
2023/10/04 04:45:49;;;;;;;9.18;4.28;;;;;;;13.53;77.60;98700.41;5085681;28;20044;-40
2023/10/04 04:48:18;;;;;;;10.48;4.40;;;;;;;13.56;77.30;98694.97;5086870;28;20136;-39
2023/10/04 04:50:44;;;;;;;9.48;4.18;;;;;;;13.47;76.89;98662.44;5077772;28;20048;-39
2023/10/04 04:53:14;;;;;;;9.38;4.10;;;;;;;13.53;76.34;98667.28;5086631;28;20427;-39
2023/10/04 04:55:40;;;;;;;10.32;4.40;;;;;;;13.75;75.83;98686.84;5101523;28;20032;-41
2023/10/04 04:58:06;;;;;;;9.27;3.83;;;;;;;13.81;75.47;98682.06;5092889;28;20517;-40
2023/10/04 05:00:33;;;;;;;11.00;4.40;;;;;;;13.89;75.20;98679.81;5066585;28;20032;-41
2023/10/04 05:03:01;;;;;;;8.75;4.38;;;;;;;13.81;74.60;98637.66;5066442;28;20044;-41
2023/10/04 05:05:29;;;;;;;8.50;4.38;;;;;;;14.04;74.17;98677.97;5073578;28;20617;-39
2023/10/04 05:07:55;;;;;;;9.98;3.92;;;;;;;14.11;73.84;98660.13;5066814;28;20053;-39
2023/10/04 05:10:22;;;;;;;13.32;4.40;;;;;;;14.14;73.58;98667.75;5082994;28;20079;-40
2023/10/04 05:12:49;;;;;;;11.30;4.90;;;;;;;14.19;73.10;98661.28;5095394;28;20042;-39
2023/10/04 05:15:33;;;;;;;8.95;3.45;;;;;;;14.19;72.31;98647.38;5103855;28;20515;-41
2023/10/04 05:18:00;;;;;;;12.88;4.57;;;;;;;14.41;71.18;98661.59;5090782;28;20474;-40
2023/10/04 05:20:31;;;;;;;11.07;4.22;;;;;;;14.33;71.08;98635.09;5065983;28;20404;-40
2023/10/04 05:23:00;;;;;;;10.98;3.85;;;;;;;14.59;70.45;98656.09;5067278;28;20063;-41
2023/10/04 05:25:29;;;;;;;9.65;3.85;;;;;;;14.69;69.85;98646.69;5065687;28;20571;-39
2023/10/04 05:28:06;;;;;;;14.02;4.68;;;;;;;14.96;69.38;98630.88;5081733;28;20065;-40
2023/10/04 05:30:32;;;;;;;12.90;3.90;;;;;;;15.05;68.09;98604.06;5099187;28;20047;-41
2023/10/04 05:32:58;;;;;;;10.45;4.80;;;;;;;15.31;67.39;98605.69;5104461;28;20665;-40
2023/10/04 05:35:25;;;;;;;9.13;3.75;;;;;;;15.74;66.27;98628.88;5075330;28;20043;-40
2023/10/04 05:37:52;;;;;;;10.57;3.45;;;;;;;15.96;64.67;98627.19;5083483;28;20127;-39
2023/10/04 05:40:25;;;;;;;10.50;3.97;;;;;;;16.23;63.77;98624.31;5073725;28;20492;-39
2023/10/04 05:42:53;;;;;;;5.78;3.17;;;;;;;16.58;63.08;98608.56;5088125;28;20529;-40
2023/10/04 05:45:19;;;;;;;9.95;3.72;;;;;;;16.83;61.38;98610.19;5089999;28;20564;-40
2023/10/04 05:47:45;;;;;;;12.65;3.42;;;;;;;17.10;59.99;98608.06;5076564;28;20048;-41
2023/10/04 05:50:17;;;;;;;8.73;3.72;;;;;;;17.38;59.50;98598.00;5075078;28;20044;-41
2023/10/04 05:52:48;;;;;;;7.18;3.22;;;;;;;17.38;58.74;98610.16;5081356;28;20525;-40
2023/10/04 05:55:14;;;;;;;12.00;3.95;;;;;;;17.43;58.60;98595.84;5088282;28;20139;-40
2023/10/04 05:57:39;;;;;;;13.38;4.65;;;;;;;17.06;58.65;98585.59;5078456;28;20123;-40
2023/10/04 06:00:28;;;;;;;10.52;4.40;;;;;;;17.00;58.97;98588.72;5087922;28;20040;-41
2023/10/04 06:02:54;;;;;;;9.25;4.53;;;;;;;17.02;58.77;98583.31;5090430;28;20124;-41
2023/10/04 06:05:22;;;;;;;11.27;4.88;;;;;;;16.93;58.57;98567.34;5090752;28;20090;-40
2023/10/04 06:07:51;;;;;;;9.52;4.43;;;;;;;16.85;58.74;98568.91;5077739;28;20143;-41
2023/10/04 06:10:18;;;;;;;12.38;4.10;;;;;;;16.65;58.80;98574.81;5070137;28;20094;-41
2023/10/04 06:12:46;;;;;;;10.30;3.67;;;;;;;16.63;59.39;98566.25;5075767;28;20056;-38
2023/10/04 06:15:16;;;;;;;12.00;4.55;;;;;;;16.65;59.37;98557.28;5086076;28;20044;-40
2023/10/04 06:17:44;;;;;;;9.00;3.70;;;;;;;16.48;58.92;98528.88;5078335;28;20032;-40
2023/10/04 06:20:23;;;;;;;13.65;4.22;;;;;;;16.45;59.00;98534.34;5085845;28;20044;-41
2023/10/04 06:22:54;;;;;;;12.60;4.60;;;;;;;16.71;58.97;98543.72;5068431;28;20264;-40
2023/10/04 06:25:24;;;;;;;10.77;4.22;;;;;;;16.94;58.21;98537.50;5069003;28;20050;-40
2023/10/04 06:27:51;;;;;;;10.07;4.35;;;;;;;17.20;57.67;98530.19;5052549;28;20075;-40
2023/10/04 06:30:22;;;;;;;10.20;3.83;;;;;;;17.44;56.74;98487.13;5085262;28;20036;-40
2023/10/04 06:32:52;;;;;;;10.50;4.57;;;;;;;17.88;55.99;98536.09;5052261;28;20064;-41
2023/10/04 06:35:23;;;;;;;12.35;4.75;;;;;;;17.89;55.94;98516.75;5068429;28;20537;-42
2023/10/04 06:37:56;;;;;;;11.02;3.95;;;;;;;17.57;56.02;98509.69;5070460;28;20048;-41
2023/10/04 06:40:24;;;;;;;8.93;3.88;;;;;;;17.19;56.31;98498.78;5102316;28;20041;-39
2023/10/04 06:42:51;;;;;;;6.97;3.28;;;;;;;17.17;56.90;98517.28;5109295;28;20507;-40
2023/10/04 06:45:19;;;;;;;11.90;4.03;;;;;;;17.00;56.98;98512.56;5107572;28;20031;-40
2023/10/04 06:47:47;;;;;;;10.85;3.83;;;;;;;16.94;57.43;98520.91;5085358;28;20365;-43
2023/10/04 06:50:15;;;;;;;18.00;4.80;;;;;;;16.93;57.34;98517.47;5077275;28;20036;-40
2023/10/04 06:52:42;;;;;;;13.27;4.13;;;;;;;16.75;57.49;98494.44;5070162;28;20851;-41
2023/10/04 06:55:11;;;;;;;11.00;3.97;;;;;;;16.74;57.57;98469.16;5072190;28;20048;-39
2023/10/04 06:57:41;;;;;;;10.98;4.07;;;;;;;16.90;57.67;98501.94;5066481;28;20044;-40
2023/10/04 07:00:14;;;;;;;14.35;5.13;;;;;;;16.89;57.38;98500.28;5055475;28;20040;-40
2023/10/04 07:02:43;;;;;;;11.00;4.63;;;;;;;16.85;57.53;98490.16;5097412;28;20189;-40
2023/10/04 07:05:16;;;;;;;14.35;4.88;;;;;;;16.70;57.80;98467.72;5058550;28;20504;-45
2023/10/04 07:07:44;;;;;;;10.38;4.38;;;;;;;16.64;57.39;98471.69;5077343;28;20043;-39
2023/10/04 07:10:13;;;;;;;9.77;3.92;;;;;;;16.79;57.70;98488.84;5068132;28;20032;-40
2023/10/04 07:12:39;;;;;;;13.40;4.95;;;;;;;16.60;57.73;98449.22;5067985;28;20499;-39
2023/10/04 07:15:06;;;;;;;15.38;4.78;;;;;;;16.73;57.55;98472.72;5068011;28;20128;-40
2023/10/04 07:17:32;;;;;;;10.80;4.07;;;;;;;16.90;57.24;98499.31;5078021;28;20052;-40
2023/10/04 07:19:58;;;;;;;7.32;3.83;;;;;;;16.98;57.45;98493.47;5086265;28;20085;-40
2023/10/04 07:22:29;;;;;;;11.00;4.32;;;;;;;17.04;57.32;98500.84;5087917;28;20164;-39
2023/10/04 07:24:57;;;;;;;15.07;4.32;;;;;;;17.08;56.73;98497.03;5069482;28;20249;-41
2023/10/04 07:27:24;;;;;;;10.60;4.13;;;;;;;17.21;56.64;98492.47;5078501;28;20051;-40
2023/10/04 07:29:53;;;;;;;8.93;4.15;;;;;;;17.22;56.21;98457.34;5087356;28;20039;-40
2023/10/04 07:32:20;;;;;;;10.10;4.57;;;;;;;17.56;55.66;98486.13;5078841;28;20507;-39
2023/10/04 07:34:47;;;;;;;14.52;4.30;;;;;;;17.75;55.44;98483.69;5068623;28;20064;-40
2023/10/04 07:37:12;;;;;;;12.65;4.03;;;;;;;17.96;54.79;98473.19;5068679;28;20049;-41
2023/10/04 07:39:38;;;;;;;9.98;3.30;;;;;;;17.96;54.24;98471.38;5073438;28;20032;-40
2023/10/04 07:42:05;;;;;;;15.50;4.28;;;;;;;18.02;54.46;98472.66;5088636;28;20418;-39
2023/10/04 07:44:31;;;;;;;10.77;3.90;;;;;;;18.09;54.04;98466.78;5109440;28;20162;-40
2023/10/04 07:47:00;;;;;;;9.18;4.20;;;;;;;18.08;53.81;98470.38;5082243;28;20048;-40
2023/10/04 07:49:28;;;;;;;14.23;4.32;;;;;;;18.31;53.32;98459.69;5067217;28;20032;-38
2023/10/04 07:51:55;;;;;;;11.07;4.13;;;;;;;18.46;52.86;98445.22;5092174;28;20411;-39
2023/10/04 07:54:21;;;;;;;14.07;4.47;;;;;;;18.47;52.70;98476.69;5082750;28;20070;-39
2023/10/04 07:56:49;;;;;;;9.43;4.57;;;;;;;18.31;53.09;98447.38;5095217;28;20047;-39
2023/10/04 07:59:16;;;;;;;9.70;4.00;;;;;;;18.23;53.15;98451.59;5109269;28;20571;-41
2023/10/04 08:01:42;;;;;;;6.53;3.30;;;;;;;17.92;53.40;98433.16;5088257;28;20135;-40
2023/10/04 08:04:08;;;;;;;10.40;3.80;;;;;;;17.94;53.78;98457.56;5094353;28;20146;-40
2023/10/04 08:06:39;;;;;;;12.23;4.70;;;;;;;17.85;53.83;98462.75;5049269;28;20465;-39
2023/10/04 08:09:05;;;;;;;9.90;4.32;;;;;;;17.80;54.00;98449.97;5082690;28;20048;-40
2023/10/04 08:11:34;;;;;;;8.32;3.60;;;;;;;17.77;54.18;98453.69;5090979;28;20043;-40
2023/10/04 08:14:01;;;;;;;8.43;3.63;;;;;;;17.77;54.36;98458.13;5068686;28;20495;-39
2023/10/04 08:16:27;;;;;;;8.32;4.35;;;;;;;17.73;54.46;98461.97;5093255;28;20050;-42
2023/10/04 08:18:56;;;;;;;8.20;3.70;;;;;;;17.76;54.47;98452.03;5089075;28;20036;-38
2023/10/04 08:21:23;;;;;;;9.70;4.38;;;;;;;17.78;54.49;98436.13;5104409;28;20168;-41
2023/10/04 08:23:49;;;;;;;10.13;4.55;;;;;;;17.85;54.41;98434.63;5083824;28;20070;-40
2023/10/04 08:26:16;;;;;;;15.85;4.85;;;;;;;17.98;54.22;98437.09;5050141;28;20039;-40
2023/10/04 08:28:42;;;;;;;16.75;4.80;;;;;;;18.14;53.95;98440.91;5078554;28;20525;-39
2023/10/04 08:31:10;;;;;;;13.77;4.95;;;;;;;18.28;53.55;98431.84;5104161;28;20430;-39
2023/10/04 08:33:37;;;;;;;11.10;4.77;;;;;;;18.30;53.10;98402.78;5104903;28;20039;-40
2023/10/04 08:36:08;;;;;;;11.02;4.40;;;;;;;18.47;52.82;98391.63;5074115;28;20196;-40
2023/10/04 08:38:34;;;;;;;13.20;4.38;;;;;;;18.71;52.03;98383.41;5083927;28;20097;-40
2023/10/04 08:41:02;;;;;;;9.57;3.53;;;;;;;19.31;51.46;98412.16;5071437;28;20044;-39
2023/10/04 08:43:31;;;;;;;8.85;3.63;;;;;;;19.37;50.36;98400.22;5088022;28;20050;-39
2023/10/04 08:45:56;;;;;;;13.68;4.30;;;;;;;19.54;50.15;98404.84;5087200;28;20113;-40
2023/10/04 08:48:25;;;;;;;12.73;4.07;;;;;;;19.76;49.86;98390.53;5088353;28;20036;-39
2023/10/04 08:51:04;;;;;;;11.27;4.43;;;;;;;20.27;49.14;98390.91;5079570;28;20131;-40
2023/10/04 08:54:08;;;;;;;11.20;3.92;;;;;;;21.70;46.25;98397.25;5086413;28;20043;-42
2023/10/04 08:56:44;;;;;;;13.30;5.60;;;;;;;22.62;44.61;98390.34;5103010;28;20043;-43
2023/10/04 08:59:17;;;;;;;13.30;4.78;;;;;;;23.32;42.31;98398.81;5060820;28;20035;-42
2023/10/04 09:01:46;;;;;;;7.93;4.10;;;;;;;23.75;41.40;98362.38;5075794;28;20058;-41
2023/10/04 09:04:13;;;;;;;14.63;5.18;;;;;;;24.75;40.56;98383.84;5084683;28;20056;-42
2023/10/04 09:06:42;;;;;;;10.40;4.30;;;;;;;25.01;38.87;98372.91;5095073;28;20060;-42
2023/10/04 09:09:18;;;;;;;13.38;5.32;;;;;;;24.78;39.16;98374.66;5103565;28;20152;-41
2023/10/04 09:11:45;;;;;;;13.13;4.60;;;;;;;25.47;37.82;98346.28;5080478;28;20044;-40
2023/10/04 09:14:16;;;;;;;14.90;5.38;;;;;;;25.15;37.92;98358.84;5100988;28;20035;-41
2023/10/04 09:16:42;;;;;;;12.55;4.78;;;;;;;23.67;39.83;98359.72;5098887;28;20039;-41
2023/10/04 09:19:17;;;;;;;14.65;4.70;;;;;;;22.90;41.47;98353.03;5107234;28;20036;-40
2023/10/04 09:21:44;;;;;;;13.10;4.18;;;;;;;22.20;42.42;98312.69;5098576;28;20074;-41
2023/10/04 09:24:11;;;;;;;14.80;5.03;;;;;;;22.04;43.17;98342.56;5107386;28;20039;-42
2023/10/04 09:26:39;;;;;;;16.08;4.63;;;;;;;22.33;42.70;98353.66;5071595;28;20202;-40
2023/10/04 09:29:06;;;;;;;10.55;4.60;;;;;;;22.29;42.48;98290.59;5097333;28;20046;-40
2023/10/04 09:31:53;;;;;;;12.52;4.40;;;;;;;22.52;42.42;98357.84;5083575;28;20039;-40
2023/10/04 09:34:20;;;;;;;11.57;4.15;;;;;;;23.10;41.52;98318.09;5106250;28;20538;-40
2023/10/04 09:36:45;;;;;;;13.93;4.15;;;;;;;23.76;39.92;98326.88;5103242;28;20478;-40
2023/10/04 09:39:16;;;;;;;14.15;4.78;;;;;;;24.57;39.18;98355.84;5093532;28;20507;-40
2023/10/04 09:41:44;;;;;;;14.85;4.72;;;;;;;25.21;37.89;98314.75;5064518;28;20032;-40
2023/10/04 09:44:20;;;;;;;15.07;5.35;;;;;;;26.09;37.05;98328.22;5066591;28;20787;-42
2023/10/04 09:46:54;;;;;;;11.95;4.55;;;;;;;26.92;35.49;98352.69;5070525;28;20050;-41
2023/10/04 09:49:22;;;;;;;14.88;4.88;;;;;;;26.36;35.75;98313.44;5080925;28;20028;-42
2023/10/04 09:51:49;;;;;;;14.27;5.20;;;;;;;26.95;34.83;98332.84;5077267;28;20044;-43
2023/10/04 09:54:16;;;;;;;10.02;5.07;;;;;;;27.14;34.40;98331.38;5061247;28;20111;-42
2023/10/04 09:56:44;;;;;;;11.03;4.50;;;;;;;27.83;33.47;98343.06;5068692;28;20125;-41
2023/10/04 09:59:11;;;;;;;17.75;4.95;;;;;;;28.04;33.50;98324.31;5082432;28;20366;-41
2023/10/04 10:01:38;;;;;;;11.93;4.43;;;;;;;28.14;32.41;98335.50;5093537;28;20036;-40
2023/10/04 10:04:08;;;;;;;9.65;3.95;;;;;;;25.43;36.01;98318.41;5093758;28;20043;-40
2023/10/04 10:06:45;;;;;;;9.68;3.80;;;;;;;23.99;38.14;98318.00;5105135;28;20062;-42
2023/10/04 10:09:16;;;;;;;9.65;4.18;;;;;;;23.28;40.01;98336.50;5094475;28;20071;-40
2023/10/04 10:11:45;;;;;;;13.57;4.85;;;;;;;22.51;41.44;98315.63;5086052;28;20572;-39
2023/10/04 10:14:12;;;;;;;12.13;5.00;;;;;;;22.10;42.57;98339.31;5076926;28;20051;-40
2023/10/04 10:16:40;;;;;;;15.95;4.80;;;;;;;21.75;43.21;98336.75;5069738;28;20060;-39
2023/10/04 10:19:06;;;;;;;12.52;4.22;;;;;;;21.35;44.37;98348.72;5064602;28;20474;-39
2023/10/04 10:22:16;;;;;;;9.18;4.10;;;;;;;21.03;45.02;98351.03;5076352;28;20044;-39
2023/10/04 10:24:51;;;;;;;18.30;5.18;;;;;;;20.54;45.75;98378.75;5083334;28;20040;-39
2023/10/04 10:27:22;;;;;;;12.43;4.03;;;;;;;20.38;46.53;98345.06;5074328;28;20048;-45
2023/10/04 10:29:49;;;;;;;19.38;5.35;;;;;;;20.26;46.99;98335.63;5091844;28;20096;-45
2023/10/04 10:32:20;;;;;;;14.38;4.20;;;;;;;20.19;47.32;98359.16;5101423;28;20065;-40
2023/10/04 10:35:12;;;;;;;10.88;4.15;;;;;;;19.98;47.87;98349.78;5103934;28;20059;-43
2023/10/04 10:37:38;;;;;;;12.07;4.80;;;;;;;19.75;48.26;98346.66;5104117;28;20130;-44
2023/10/04 10:40:35;;;;;;;14.80;4.78;;;;;;;19.76;48.50;98356.25;5086279;28;20141;-43
2023/10/04 10:43:08;;;;;;;11.48;4.25;;;;;;;19.60;49.00;98385.00;5088052;28;20055;-46
2023/10/04 10:45:34;;;;;;;13.30;5.32;;;;;;;19.50;49.16;98360.44;5104442;28;20047;-43
2023/10/04 10:48:02;;;;;;;13.88;4.78;;;;;;;19.37;49.83;98406.34;5099460;28;20533;-46
2023/10/04 10:50:33;;;;;;;12.77;4.60;;;;;;;19.26;50.20;98380.13;5093372;28;20040;-43
2023/10/04 10:53:05;;;;;;;15.63;4.30;;;;;;;19.15;50.62;98376.81;5086595;28;20285;-43
2023/10/04 10:55:33;;;;;;;11.90;4.00;;;;;;;19.10;50.72;98384.28;5076309;28;20571;-45
2023/10/04 10:57:59;;;;;;;10.45;4.40;;;;;;;19.03;51.00;98390.09;5066764;28;20050;-41
2023/10/04 11:00:31;;;;;;;10.23;5.00;;;;;;;18.98;51.27;98402.88;5071571;28;20119;-51
2023/10/04 11:03:05;;;;;;;8.75;3.60;;;;;;;18.92;51.59;98371.78;5063273;28;20070;-48
2023/10/04 11:05:31;;;;;;;13.05;4.95;;;;;;;18.91;51.64;98372.75;5069654;28;20110;-46
2023/10/04 11:07:57;;;;;;;11.23;3.83;;;;;;;18.89;51.69;98379.16;5066243;28;20040;-49
2023/10/04 11:10:25;;;;;;;18.83;5.22;;;;;;;18.85;52.26;98377.72;5065112;28;20529;-48
2023/10/04 11:12:57;;;;;;;12.85;5.18;;;;;;;18.80;52.34;98420.28;5066754;28;20221;-47
2023/10/04 11:15:26;;;;;;;13.40;4.65;;;;;;;18.77;52.47;98414.47;5072328;28;20070;-45
2023/10/04 11:17:52;;;;;;;12.60;4.38;;;;;;;18.66;52.89;98385.59;5103943;28;20031;-42
2023/10/04 11:20:20;;;;;;;12.88;4.82;;;;;;;18.40;53.29;98382.59;5101848;28;20036;-46
2023/10/04 11:22:48;;;;;;;11.30;4.85;;;;;;;18.54;53.21;98403.28;5079382;28;20623;-45
2023/10/04 11:25:14;;;;;;;12.00;4.13;;;;;;;18.49;53.50;98423.88;5091130;28;20092;-43
2023/10/04 11:27:43;;;;;;;10.98;4.63;;;;;;;18.48;53.91;98422.22;5077616;28;20048;-43
2023/10/04 11:30:11;;;;;;;10.55;5.28;;;;;;;18.46;54.00;98450.47;5065750;28;20040;-47
2023/10/04 11:32:41;;;;;;;16.75;4.75;;;;;;;18.37;54.25;98441.56;5090141;28;20387;-42
2023/10/04 11:35:08;;;;;;;17.20;4.68;;;;;;;18.32;54.68;98438.50;5102398;28;20799;-49
2023/10/04 11:37:53;;;;;;;18.85;5.20;;;;;;;18.25;55.11;98442.63;5064202;28;20040;-51